createdAt,value
2017-03-01T00:00:07.366Z,0
2017-03-01T00:01:06.535Z,0
2017-03-01T00:02:06.892Z,0
2017-03-01T00:03:07.290Z,0
2017-03-01T00:04:07.235Z,0
2017-03-01T00:05:07.207Z,0
2017-03-01T00:06:07.203Z,0
2017-03-01T00:07:06.767Z,0
2017-03-01T00:08:07.183Z,0
2017-03-01T00:09:07.086Z,0
2017-03-01T00:10:07.105Z,0
2017-03-01T00:11:06.683Z,0
2017-03-01T00:12:07.046Z,0
2017-03-01T00:13:06.611Z,0
2017-03-01T00:14:06.596Z,0
2017-03-01T00:15:06.974Z,0
2017-03-01T00:16:06.919Z,0
2017-03-01T00:17:06.897Z,0
2017-03-01T00:18:06.866Z,0
2017-03-01T00:19:06.848Z,0
2017-03-01T00:20:06.445Z,0
2017-03-01T00:21:06.796Z,0
2017-03-01T00:22:06.772Z,0
2017-03-01T00:23:06.739Z,0
2017-03-01T00:24:06.348Z,0
2017-03-01T00:25:06.722Z,0
2017-03-01T00:26:06.678Z,0
2017-03-01T00:27:06.654Z,0
2017-03-01T00:28:06.638Z,0
2017-03-01T00:29:06.575Z,0
2017-03-01T00:30:06.567Z,0
2017-03-01T00:31:06.549Z,0
2017-03-01T00:32:06.549Z,0
2017-03-01T00:33:06.503Z,0
2017-03-01T00:34:06.511Z,0
2017-03-01T00:35:06.432Z,0
2017-03-01T00:36:06.044Z,0
2017-03-01T00:37:06.414Z,0
2017-03-01T00:38:05.969Z,0
2017-03-01T00:39:06.325Z,0
2017-03-01T00:40:06.317Z,0
2017-03-01T00:41:06.283Z,0
2017-03-01T00:42:06.273Z,0
2017-03-01T00:43:06.222Z,0
2017-03-01T00:44:06.240Z,0
2017-03-01T00:45:06.204Z,0
2017-03-01T00:46:06.189Z,0
2017-03-01T00:47:06.140Z,0
2017-03-01T00:48:06.148Z,0
2017-03-01T00:49:06.128Z,0
2017-03-01T00:50:06.080Z,0
2017-03-01T00:51:06.053Z,0
2017-03-01T00:52:05.996Z,0
2017-03-01T00:53:05.975Z,0
2017-03-01T00:54:05.943Z,0
2017-03-01T00:55:05.577Z,0
2017-03-01T00:56:05.515Z,0
2017-03-01T00:57:05.887Z,0
2017-03-01T00:58:05.853Z,0
2017-03-01T00:59:05.847Z,0
2017-03-01T01:00:05.823Z,0
2017-03-01T01:01:05.770Z,0
2017-03-01T01:02:05.371Z,0
2017-03-01T01:03:05.744Z,0
2017-03-01T01:04:05.707Z,0
2017-03-01T01:05:05.298Z,0
2017-03-01T01:06:05.659Z,0
2017-03-01T01:07:05.677Z,0
2017-03-01T01:08:05.616Z,0
2017-03-01T01:09:05.587Z,0
2017-03-01T01:10:05.181Z,0
2017-03-01T01:11:05.495Z,0
2017-03-01T01:12:05.520Z,0
2017-03-01T01:13:05.535Z,0
2017-03-01T01:14:05.490Z,0
2017-03-01T01:15:05.034Z,0
2017-03-01T01:16:05.435Z,0
2017-03-01T01:17:05.378Z,0
2017-03-01T01:18:04.992Z,0
2017-03-01T01:19:05.366Z,0
2017-03-01T01:20:04.920Z,0
2017-03-01T01:21:05.266Z,0
2017-03-01T01:22:05.237Z,0
2017-03-01T01:23:05.257Z,0
2017-03-01T01:24:05.202Z,0
2017-03-01T01:25:05.189Z,0
2017-03-01T01:26:05.176Z,0
2017-03-01T01:27:05.104Z,0
2017-03-01T01:28:05.114Z,0
2017-03-01T01:29:05.100Z,0
2017-03-01T01:30:05.033Z,0
2017-03-01T01:31:04.272Z,0
2017-03-01T01:32:05.013Z,0
2017-03-01T01:33:04.594Z,0
2017-03-01T01:34:04.931Z,0
2017-03-01T01:35:04.527Z,0
2017-03-01T01:36:04.516Z,0
2017-03-01T01:37:04.457Z,0
2017-03-01T01:38:04.842Z,0
2017-03-01T01:39:04.436Z,0
2017-03-01T01:40:04.830Z,0
2017-03-01T01:41:04.367Z,0
2017-03-01T01:42:04.364Z,0
2017-03-01T01:43:04.751Z,0
2017-03-01T01:44:04.708Z,0
2017-03-01T01:45:04.689Z,0
2017-03-01T01:46:04.660Z,0
2017-03-01T01:47:04.594Z,0
2017-03-01T01:48:04.568Z,0
2017-03-01T01:49:04.528Z,0
2017-03-01T01:50:04.517Z,0
2017-03-01T01:51:04.530Z,0
2017-03-01T01:52:04.464Z,0
2017-03-01T01:53:04.436Z,0
2017-03-01T01:54:04.405Z,0
2017-03-01T01:55:04.020Z,0
2017-03-01T01:56:03.995Z,0
2017-03-01T01:57:03.958Z,0
2017-03-01T01:58:04.331Z,0
2017-03-01T01:59:04.280Z,0
2017-03-01T02:00:04.313Z,0
2017-03-01T02:01:04.224Z,0
2017-03-01T02:02:04.244Z,0
2017-03-01T02:03:03.851Z,0
2017-03-01T02:04:04.169Z,0
2017-03-01T02:05:04.144Z,0
2017-03-01T02:06:04.116Z,0
2017-03-01T02:07:03.704Z,0
2017-03-01T02:08:04.061Z,0
2017-03-01T02:09:04.060Z,0
2017-03-01T02:10:04.025Z,0
2017-03-01T02:11:03.960Z,0
2017-03-01T02:12:03.959Z,0
2017-03-01T02:13:03.939Z,0
2017-03-01T02:14:03.933Z,0
2017-03-01T02:15:03.886Z,0
2017-03-01T02:16:03.831Z,0
2017-03-01T02:17:03.810Z,0
2017-03-01T02:18:03.810Z,0
2017-03-01T02:19:03.764Z,0
2017-03-01T02:20:03.749Z,0
2017-03-01T02:21:03.744Z,0
2017-03-01T02:22:03.722Z,0
2017-03-01T02:23:03.291Z,0
2017-03-01T02:24:03.659Z,0
2017-03-01T02:25:03.657Z,0
2017-03-01T02:26:03.604Z,0
2017-03-01T02:27:03.575Z,0
2017-03-01T02:28:03.565Z,0
2017-03-01T02:29:03.510Z,0
2017-03-01T02:30:03.515Z,0
2017-03-01T02:31:03.485Z,0
2017-03-01T02:32:03.466Z,0
2017-03-01T02:33:03.399Z,0
2017-03-01T02:34:03.391Z,0
2017-03-01T02:35:03.348Z,0
2017-03-01T02:36:03.362Z,0
2017-03-01T02:37:03.310Z,0
2017-03-01T02:38:03.290Z,0
2017-03-01T02:39:02.893Z,0
2017-03-01T02:40:02.861Z,0
2017-03-01T02:41:03.204Z,0
2017-03-01T02:42:03.199Z,0
2017-03-01T02:43:03.157Z,0
2017-03-01T02:44:03.166Z,0
2017-03-01T02:45:03.140Z,0
2017-03-01T02:46:03.080Z,0
2017-03-01T02:47:03.068Z,0
2017-03-01T02:48:03.024Z,0
2017-03-01T02:49:02.983Z,0
2017-03-01T02:50:02.961Z,0
2017-03-01T02:51:02.994Z,0
2017-03-01T02:52:02.926Z,0
2017-03-01T02:53:02.905Z,0
2017-03-01T02:54:02.872Z,0
2017-03-01T02:55:02.869Z,0
2017-03-01T02:56:02.837Z,0
2017-03-01T02:57:02.393Z,0
2017-03-01T02:58:02.367Z,0
2017-03-01T02:59:02.762Z,0
2017-03-01T03:00:02.323Z,0
2017-03-01T03:01:02.738Z,0
2017-03-01T03:02:02.642Z,0
2017-03-01T03:03:02.644Z,0
2017-03-01T03:04:02.647Z,0
2017-03-01T03:05:02.617Z,0
2017-03-01T03:06:02.581Z,0
2017-03-01T03:07:02.526Z,0
2017-03-01T03:08:02.517Z,0
2017-03-01T03:09:02.486Z,0
2017-03-01T03:10:02.481Z,0
2017-03-01T03:11:02.430Z,0
2017-03-01T03:12:02.401Z,0
2017-03-01T03:13:02.377Z,0
2017-03-01T03:14:02.314Z,0
2017-03-01T03:15:02.317Z,0
2017-03-01T03:16:02.306Z,0
2017-03-01T03:17:02.270Z,0
2017-03-01T03:18:02.236Z,0
2017-03-01T03:19:02.243Z,0
2017-03-01T03:20:02.181Z,0
2017-03-01T03:21:02.165Z,0
2017-03-01T03:22:02.121Z,0
2017-03-01T03:23:02.151Z,0
2017-03-01T03:24:02.078Z,0
2017-03-01T03:25:02.064Z,0
2017-03-01T03:26:02.011Z,0
2017-03-01T03:27:01.976Z,0
2017-03-01T03:28:01.996Z,0
2017-03-01T03:29:01.955Z,0
2017-03-01T03:30:01.936Z,0
2017-03-01T03:31:01.913Z,0
2017-03-01T03:32:01.885Z,0
2017-03-01T03:33:01.827Z,0
2017-03-01T03:34:01.837Z,0
2017-03-01T03:35:01.419Z,0
2017-03-01T03:36:01.754Z,0
2017-03-01T03:37:01.331Z,0
2017-03-01T03:38:01.749Z,0
2017-03-01T03:39:01.723Z,0
2017-03-01T03:40:01.638Z,0
2017-03-01T03:41:01.621Z,0
2017-03-01T03:42:01.621Z,0
2017-03-01T03:43:01.632Z,0
2017-03-01T03:44:01.571Z,0
2017-03-01T03:45:01.146Z,0
2017-03-01T03:46:01.464Z,0
2017-03-01T03:47:01.450Z,0
2017-03-01T03:48:01.437Z,0
2017-03-01T03:49:01.421Z,0
2017-03-01T03:50:01.399Z,0
2017-03-01T03:51:01.396Z,0
2017-03-01T03:52:01.321Z,0
2017-03-01T03:53:01.318Z,0
2017-03-01T03:54:01.308Z,0
2017-03-01T03:55:01.254Z,0
2017-03-01T03:56:01.233Z,0
2017-03-01T03:57:01.190Z,0
2017-03-01T03:58:01.164Z,0
2017-03-01T03:59:01.160Z,0
2017-03-01T04:00:01.131Z,0
2017-03-01T04:01:01.103Z,0
2017-03-01T04:02:01.079Z,0
2017-03-01T04:03:01.038Z,0
2017-03-01T04:04:01.274Z,0
2017-03-01T04:05:13.978Z,0
2017-03-01T04:06:13.846Z,0
2017-03-01T04:07:00.930Z,0
2017-03-01T04:08:00.896Z,0
2017-03-01T04:09:00.910Z,0
2017-03-01T04:10:00.847Z,0
2017-03-01T04:11:00.832Z,0
2017-03-01T04:12:00.818Z,0
2017-03-01T04:13:00.808Z,0
2017-03-01T04:14:00.741Z,0
2017-03-01T04:15:00.721Z,0
2017-03-01T04:16:00.689Z,0
2017-03-01T04:17:00.268Z,0
2017-03-01T04:18:00.633Z,0
2017-03-01T04:19:00.614Z,0
2017-03-01T04:20:00.580Z,0
2017-03-01T04:21:00.167Z,0
2017-03-01T04:22:00.128Z,0
2017-03-01T04:23:00.510Z,0
2017-03-01T04:24:00.501Z,0
2017-03-01T04:25:00.446Z,0
2017-03-01T04:26:00.034Z,0
2017-03-01T04:27:00.433Z,0
2017-03-01T04:28:00.390Z,0
2017-03-01T04:29:00.347Z,0
2017-03-01T04:29:59.937Z,0
2017-03-01T04:31:00.287Z,0
2017-03-01T04:32:00.244Z,0
2017-03-01T04:33:00.266Z,0
2017-03-01T04:34:00.214Z,0
2017-03-01T04:34:59.792Z,0
2017-03-01T04:35:59.991Z,0
2017-03-01T04:37:00.118Z,0
2017-03-01T04:38:00.125Z,0
2017-03-01T04:39:00.068Z,0
2017-03-01T04:40:00.063Z,0
2017-03-01T04:41:00.287Z,0
2017-03-01T04:41:59.998Z,0
2017-03-01T04:42:59.982Z,0
2017-03-01T04:43:59.977Z,0
2017-03-01T04:45:00.130Z,0
2017-03-01T04:45:59.876Z,0
2017-03-01T04:46:59.845Z,0
2017-03-01T04:47:59.851Z,0
2017-03-01T04:48:59.806Z,0
2017-03-01T04:49:59.801Z,0
2017-03-01T04:50:59.756Z,0
2017-03-01T04:51:59.753Z,0
2017-03-01T04:52:59.727Z,0
2017-03-01T04:53:59.682Z,0
2017-03-01T04:54:59.677Z,0
2017-03-01T04:55:59.626Z,0
2017-03-01T04:56:59.579Z,0
2017-03-01T04:57:59.578Z,0
2017-03-01T04:58:59.540Z,0
2017-03-01T04:59:59.516Z,0
2017-03-01T05:00:59.313Z,0
2017-03-01T05:01:59.467Z,0
2017-03-01T05:02:59.428Z,0
2017-03-01T05:03:59.415Z,0
2017-03-01T05:04:59.370Z,0
2017-03-01T05:05:59.364Z,0
2017-03-01T05:06:59.545Z,0
2017-03-01T05:07:59.297Z,0
2017-03-01T05:08:59.306Z,0
2017-03-01T05:09:59.235Z,0
2017-03-01T05:10:59.221Z,0
2017-03-01T05:11:59.217Z,0
2017-03-01T05:12:59.163Z,0
2017-03-01T05:13:59.150Z,0
2017-03-01T05:14:59.121Z,0
2017-03-01T05:15:58.717Z,0
2017-03-01T05:16:59.084Z,0
2017-03-01T05:17:59.059Z,0
2017-03-01T05:18:59.001Z,0
2017-03-01T05:19:58.970Z,0
2017-03-01T05:20:58.975Z,0
2017-03-01T05:21:58.913Z,0
2017-03-01T05:22:58.937Z,0
2017-03-01T05:23:58.869Z,0
2017-03-01T05:24:58.828Z,0
2017-03-01T05:25:58.805Z,0
2017-03-01T05:26:58.795Z,0
2017-03-01T05:27:58.768Z,0
2017-03-01T05:28:58.764Z,0
2017-03-01T05:29:58.721Z,0
2017-03-01T05:30:58.686Z,0
2017-03-01T05:31:58.266Z,0
2017-03-01T05:32:58.658Z,0
2017-03-01T05:33:58.602Z,0
2017-03-01T05:34:58.568Z,0
2017-03-01T05:36:12.188Z,0
2017-03-01T05:36:58.189Z,0
2017-03-01T05:37:58.484Z,0
2017-03-01T05:38:58.449Z,0
2017-03-01T05:39:58.471Z,0
2017-03-01T05:40:58.425Z,0
2017-03-01T05:41:58.416Z,0
2017-03-01T05:42:58.177Z,0
2017-03-01T05:43:58.322Z,0
2017-03-01T05:44:57.925Z,0
2017-03-01T05:45:57.896Z,5
2017-03-01T05:46:58.231Z,5
2017-03-01T05:47:57.831Z,5
2017-03-01T05:48:57.810Z,5
2017-03-01T05:49:58.162Z,10
2017-03-01T05:50:57.782Z,10
2017-03-01T05:51:58.115Z,10
2017-03-01T05:52:58.069Z,15
2017-03-01T05:53:57.669Z,15
2017-03-01T05:54:58.072Z,15
2017-03-01T05:55:57.998Z,20
2017-03-01T05:56:57.571Z,20
2017-03-01T05:57:57.967Z,25
2017-03-01T05:58:57.920Z,25
2017-03-01T05:59:57.925Z,25
2017-03-01T06:00:57.906Z,30
2017-03-01T06:01:57.844Z,30
2017-03-01T06:03:11.471Z,35
2017-03-01T06:03:57.783Z,35
2017-03-01T06:04:57.798Z,35
2017-03-01T06:05:57.747Z,40
2017-03-01T06:06:57.711Z,40
2017-03-01T06:07:57.929Z,45
2017-03-01T06:08:57.900Z,50
2017-03-01T06:09:57.642Z,50
2017-03-01T06:10:57.609Z,50
2017-03-01T06:11:57.570Z,55
2017-03-01T06:12:57.602Z,55
2017-03-01T06:13:57.755Z,60
2017-03-01T06:14:57.493Z,70
2017-03-01T06:15:57.482Z,70
2017-03-01T06:16:57.457Z,70
2017-03-01T06:17:57.420Z,75
2017-03-01T06:18:57.413Z,80
2017-03-01T06:19:56.963Z,85
2017-03-01T06:20:57.386Z,85
2017-03-01T06:21:57.309Z,100
2017-03-01T06:22:57.277Z,110
2017-03-01T06:23:57.304Z,120
2017-03-01T06:24:57.239Z,130
2017-03-01T06:25:57.190Z,120
2017-03-01T06:26:56.814Z,130
2017-03-01T06:27:57.177Z,120
2017-03-01T06:29:10.376Z,135
2017-03-01T06:29:56.697Z,130
2017-03-01T06:30:57.084Z,140
2017-03-01T06:31:57.066Z,135
2017-03-01T06:32:57.076Z,145
2017-03-01T06:33:57.201Z,160
2017-03-01T06:34:56.998Z,160
2017-03-01T06:35:56.931Z,175
2017-03-01T06:36:56.559Z,195
2017-03-01T06:37:56.905Z,185
2017-03-01T06:38:56.483Z,205
2017-03-01T06:40:10.225Z,215
2017-03-01T06:40:56.831Z,225
2017-03-01T06:41:56.411Z,235
2017-03-01T06:42:56.757Z,270
2017-03-01T06:43:56.363Z,255
2017-03-01T06:44:56.684Z,380
2017-03-01T06:45:56.717Z,300
2017-03-01T06:46:56.647Z,255
2017-03-01T06:47:56.646Z,355
2017-03-01T06:48:56.650Z,320
2017-03-01T06:49:56.575Z,265
2017-03-01T06:50:55.784Z,340
2017-03-01T06:51:56.541Z,365
2017-03-01T06:52:56.480Z,305
2017-03-01T06:53:56.480Z,315
2017-03-01T06:54:56.485Z,280
2017-03-01T06:55:56.429Z,350
2017-03-01T06:56:56.412Z,380
2017-03-01T06:57:56.380Z,340
2017-03-01T06:58:56.336Z,350
2017-03-01T06:59:56.333Z,375
2017-03-01T07:00:55.915Z,460
2017-03-01T07:01:55.927Z,430
2017-03-01T07:02:56.242Z,440
2017-03-01T07:03:56.195Z,435
2017-03-01T07:04:56.175Z,485
2017-03-01T07:05:56.159Z,445
2017-03-01T07:06:56.188Z,415
2017-03-01T07:07:56.107Z,420
2017-03-01T07:08:55.298Z,375
2017-03-01T07:09:56.276Z,400
2017-03-01T07:10:56.019Z,615
2017-03-01T07:11:55.613Z,490
2017-03-01T07:12:55.960Z,660
2017-03-01T07:13:55.572Z,755
2017-03-01T07:14:55.535Z,640
2017-03-01T07:15:55.877Z,575
2017-03-01T07:16:55.896Z,620
2017-03-01T07:17:55.838Z,680
2017-03-01T07:18:55.793Z,620
2017-03-01T07:19:55.796Z,715
2017-03-01T07:20:55.774Z,635
2017-03-01T07:21:55.797Z,630
2017-03-01T07:22:54.936Z,800
2017-03-01T07:23:55.648Z,890
2017-03-01T07:24:55.717Z,690
2017-03-01T07:25:55.622Z,580
2017-03-01T07:26:55.583Z,515
2017-03-01T07:27:55.555Z,765
2017-03-01T07:28:55.546Z,585
2017-03-01T07:29:55.531Z,520
2017-03-01T07:30:55.494Z,585
2017-03-01T07:31:55.489Z,615
2017-03-01T07:32:55.420Z,755
2017-03-01T07:33:55.417Z,585
2017-03-01T07:34:55.411Z,585
2017-03-01T07:35:55.363Z,560
2017-03-01T07:36:54.966Z,460
2017-03-01T07:37:54.534Z,850
2017-03-01T07:38:55.294Z,750
2017-03-01T07:39:55.279Z,730
2017-03-01T07:40:54.473Z,690
2017-03-01T07:41:55.234Z,830
2017-03-01T07:42:55.185Z,760
2017-03-01T07:43:55.164Z,600
2017-03-01T07:44:55.133Z,600
2017-03-01T07:45:55.124Z,755
2017-03-01T07:46:54.708Z,515
2017-03-01T07:47:54.683Z,650
2017-03-01T07:48:54.665Z,900
2017-03-01T07:49:55.038Z,880
2017-03-01T07:50:54.651Z,995
2017-03-01T07:51:54.992Z,800
2017-03-01T07:52:54.531Z,635
2017-03-01T07:53:54.888Z,1045
2017-03-01T07:54:54.883Z,845
2017-03-01T07:55:54.881Z,735
2017-03-01T07:56:54.815Z,745
2017-03-01T07:57:54.845Z,775
2017-03-01T07:58:54.771Z,855
2017-03-01T07:59:54.757Z,755
2017-03-01T08:00:54.743Z,850
2017-03-01T08:01:54.708Z,830
2017-03-01T08:02:54.678Z,860
2017-03-01T08:03:54.664Z,800
2017-03-01T08:04:54.609Z,895
2017-03-01T08:05:54.222Z,840
2017-03-01T08:06:54.543Z,840
2017-03-01T08:07:54.572Z,825
2017-03-01T08:08:54.521Z,995
2017-03-01T08:09:54.522Z,785
2017-03-01T08:10:54.464Z,925
2017-03-01T08:11:54.507Z,1085
2017-03-01T08:12:54.414Z,1210
2017-03-01T08:13:54.033Z,1040
2017-03-01T08:14:53.986Z,1035
2017-03-01T08:15:54.349Z,840
2017-03-01T08:16:53.923Z,1020
2017-03-01T08:17:54.315Z,865
2017-03-01T08:18:54.254Z,985
2017-03-01T08:19:53.840Z,1000
2017-03-01T08:20:54.220Z,920
2017-03-01T08:21:54.171Z,975
2017-03-01T08:22:54.169Z,1010
2017-03-01T08:23:53.383Z,1080
2017-03-01T08:24:54.082Z,1080
2017-03-01T08:25:54.076Z,940
2017-03-01T08:26:54.047Z,980
2017-03-01T08:27:54.030Z,1185
2017-03-01T08:28:54.062Z,1280
2017-03-01T08:29:53.987Z,1060
2017-03-01T08:30:53.958Z,1100
2017-03-01T08:31:53.539Z,915
2017-03-01T08:32:53.904Z,990
2017-03-01T08:33:53.891Z,1035
2017-03-01T08:34:53.851Z,1140
2017-03-01T08:35:53.838Z,1450
2017-03-01T08:36:53.796Z,1130
2017-03-01T08:37:53.801Z,1050
2017-03-01T08:38:53.734Z,1320
2017-03-01T08:39:53.717Z,1180
2017-03-01T08:40:53.727Z,1105
2017-03-01T08:41:53.303Z,1340
2017-03-01T08:42:53.623Z,1170
2017-03-01T08:43:53.634Z,1135
2017-03-01T08:44:52.796Z,905
2017-03-01T08:45:53.575Z,1150
2017-03-01T08:46:53.531Z,1220
2017-03-01T08:47:53.125Z,1055
2017-03-01T08:48:53.477Z,1115
2017-03-01T08:49:53.466Z,1155
2017-03-01T08:50:53.033Z,1300
2017-03-01T08:51:53.055Z,1260
2017-03-01T08:52:53.046Z,970
2017-03-01T08:53:52.956Z,960
2017-03-01T08:54:52.937Z,955
2017-03-01T08:55:53.340Z,1015
2017-03-01T08:56:53.307Z,1020
2017-03-01T08:57:53.280Z,1040
2017-03-01T08:58:52.447Z,1100
2017-03-01T08:59:52.830Z,1070
2017-03-01T09:00:53.186Z,980
2017-03-01T09:01:52.823Z,990
2017-03-01T09:02:53.166Z,1080
2017-03-01T09:03:53.129Z,1140
2017-03-01T09:04:53.276Z,1160
2017-03-01T09:05:53.069Z,1040
2017-03-01T09:06:53.037Z,1050
2017-03-01T09:07:53.012Z,1010
2017-03-01T09:08:52.985Z,1025
2017-03-01T09:09:52.943Z,1160
2017-03-01T09:10:52.598Z,1120
2017-03-01T09:11:52.919Z,1165
2017-03-01T09:12:52.924Z,1190
2017-03-01T09:13:52.848Z,1240
2017-03-01T09:14:52.834Z,1245
2017-03-01T09:15:52.791Z,1265
2017-03-01T09:16:52.782Z,1270
2017-03-01T09:17:52.353Z,1450
2017-03-01T09:18:52.735Z,1300
2017-03-01T09:19:52.721Z,1080
2017-03-01T09:20:52.703Z,1270
2017-03-01T09:21:52.283Z,1220
2017-03-01T09:22:52.647Z,1260
2017-03-01T09:23:52.604Z,1225
2017-03-01T09:24:52.588Z,1090
2017-03-01T09:25:52.562Z,1385
2017-03-01T09:26:52.540Z,1585
2017-03-01T09:27:52.500Z,1530
2017-03-01T09:28:52.454Z,1515
2017-03-01T09:29:52.477Z,1275
2017-03-01T09:30:52.444Z,1260
2017-03-01T09:31:52.438Z,1615
2017-03-01T09:32:52.386Z,1625
2017-03-01T09:33:52.358Z,1240
2017-03-01T09:34:52.356Z,1440
2017-03-01T09:35:52.301Z,1190
2017-03-01T09:36:52.264Z,1215
2017-03-01T09:37:52.246Z,1360
2017-03-01T09:38:52.238Z,1415
2017-03-01T09:39:52.198Z,1320
2017-03-01T09:40:52.187Z,1330
2017-03-01T09:41:52.140Z,1325
2017-03-01T09:42:52.113Z,1425
2017-03-01T09:43:52.129Z,1250
2017-03-01T09:44:52.087Z,1595
2017-03-01T09:45:51.656Z,1460
2017-03-01T09:46:52.030Z,1290
2017-03-01T09:47:52.032Z,1385
2017-03-01T09:48:51.991Z,1280
2017-03-01T09:49:51.933Z,1445
2017-03-01T09:50:51.523Z,1365
2017-03-01T09:51:51.893Z,1355
2017-03-01T09:52:51.869Z,1310
2017-03-01T09:53:51.853Z,1380
2017-03-01T09:54:51.852Z,1450
2017-03-01T09:55:51.806Z,1355
2017-03-01T09:56:51.759Z,1520
2017-03-01T09:57:51.739Z,1435
2017-03-01T09:58:51.738Z,1370
2017-03-01T09:59:51.713Z,1145
2017-03-01T10:00:51.681Z,1420
2017-03-01T10:01:51.645Z,1490
2017-03-01T10:02:51.604Z,1710
2017-03-01T10:03:51.231Z,1615
2017-03-01T10:04:51.184Z,1520
2017-03-01T10:05:51.155Z,1305
2017-03-01T10:06:51.512Z,1390
2017-03-01T10:07:51.110Z,1535
2017-03-01T10:08:51.110Z,1505
2017-03-01T10:09:51.460Z,1375
2017-03-01T10:10:51.041Z,1430
2017-03-01T10:11:51.432Z,1745
2017-03-01T10:12:50.585Z,2045
2017-03-01T10:13:51.358Z,1250
2017-03-01T10:14:50.549Z,1370
2017-03-01T10:15:51.323Z,1665
2017-03-01T10:16:51.302Z,1490
2017-03-01T10:17:50.904Z,1425
2017-03-01T10:18:51.237Z,1555
2017-03-01T10:19:51.245Z,1765
2017-03-01T10:20:51.171Z,1715
2017-03-01T10:21:51.167Z,1510
2017-03-01T10:22:51.206Z,1490
2017-03-01T10:23:51.118Z,1400
2017-03-01T10:24:50.722Z,1285
2017-03-01T10:25:51.075Z,1255
2017-03-01T10:26:51.081Z,1570
2017-03-01T10:27:50.664Z,1600
2017-03-01T10:28:50.601Z,1465
2017-03-01T10:29:50.584Z,1765
2017-03-01T10:30:50.572Z,1600
2017-03-01T10:31:50.537Z,1280
2017-03-01T10:32:50.515Z,1470
2017-03-01T10:33:50.132Z,1380
2017-03-01T10:34:50.443Z,1595
2017-03-01T10:35:50.859Z,1735
2017-03-01T10:36:50.010Z,1835
2017-03-01T10:37:50.780Z,1605
2017-03-01T10:38:49.590Z,1825
2017-03-01T10:39:50.732Z,1855
2017-03-01T10:40:50.676Z,1445
2017-03-01T10:41:50.680Z,1590
2017-03-01T10:42:50.687Z,1705
2017-03-01T10:43:50.625Z,2395
2017-03-01T10:44:50.227Z,2010
2017-03-01T10:45:50.179Z,2120
2017-03-01T10:46:50.545Z,1740
2017-03-01T10:47:50.155Z,1870
2017-03-01T10:48:50.494Z,1595
2017-03-01T10:49:50.479Z,1480
2017-03-01T10:50:50.471Z,1420
2017-03-01T10:51:50.425Z,1265
2017-03-01T10:52:50.404Z,1800
2017-03-01T10:53:50.381Z,1780
2017-03-01T10:54:50.361Z,1700
2017-03-01T10:55:49.941Z,2095
2017-03-01T10:56:50.322Z,1965
2017-03-01T10:57:50.333Z,1790
2017-03-01T10:58:49.885Z,1695
2017-03-01T10:59:50.222Z,1630
2017-03-01T11:00:50.209Z,1630
2017-03-01T11:01:50.195Z,1930
2017-03-01T11:02:50.176Z,1705
2017-03-01T11:03:49.773Z,1760
2017-03-01T11:04:49.741Z,2005
2017-03-01T11:05:49.697Z,1390
2017-03-01T11:06:50.095Z,1940
2017-03-01T11:07:49.683Z,2165
2017-03-01T11:08:49.653Z,1720
2017-03-01T11:09:49.578Z,1745
2017-03-01T11:10:49.600Z,1815
2017-03-01T11:11:49.957Z,3455
2017-03-01T11:12:49.548Z,2105
2017-03-01T11:13:49.910Z,1810
2017-03-01T11:14:49.506Z,1600
2017-03-01T11:15:49.849Z,1865
2017-03-01T11:16:49.842Z,1905
2017-03-01T11:17:49.808Z,1715
2017-03-01T11:18:49.785Z,1820
2017-03-01T11:19:49.759Z,1655
2017-03-01T11:20:49.359Z,1540
2017-03-01T11:21:49.309Z,2140
2017-03-01T11:22:49.703Z,1770
2017-03-01T11:23:49.282Z,1260
2017-03-01T11:24:49.627Z,1710
2017-03-01T11:25:49.592Z,2985
2017-03-01T11:26:49.635Z,3385
2017-03-01T11:27:49.554Z,3445
2017-03-01T11:28:49.565Z,2290
2017-03-01T11:29:49.511Z,2065
2017-03-01T11:30:49.489Z,1750
2017-03-01T11:31:49.470Z,1805
2017-03-01T11:32:49.479Z,1355
2017-03-01T11:33:49.414Z,1590
2017-03-01T11:34:49.390Z,1495
2017-03-01T11:35:49.378Z,1625
2017-03-01T11:36:48.989Z,1410
2017-03-01T11:37:49.335Z,1670
2017-03-01T11:38:48.921Z,1420
2017-03-01T11:39:49.282Z,1575
2017-03-01T11:40:49.237Z,1575
2017-03-01T11:41:49.239Z,1485
2017-03-01T11:42:49.219Z,2015
2017-03-01T11:43:49.169Z,1750
2017-03-01T11:44:48.386Z,1810
2017-03-01T11:45:49.131Z,2140
2017-03-01T11:46:49.089Z,1720
2017-03-01T11:47:49.101Z,1605
2017-03-01T11:48:48.672Z,1585
2017-03-01T11:49:49.029Z,2035
2017-03-01T11:50:49.013Z,1445
2017-03-01T11:51:48.959Z,1605
2017-03-01T11:52:48.961Z,1620
2017-03-01T11:53:48.928Z,1355
2017-03-01T11:54:48.938Z,1420
2017-03-01T11:55:48.881Z,1515
2017-03-01T11:56:48.886Z,1460
2017-03-01T11:57:48.444Z,1355
2017-03-01T11:58:48.849Z,1375
2017-03-01T11:59:48.789Z,1305
2017-03-01T12:00:48.744Z,1130
2017-03-01T12:01:48.364Z,1040
2017-03-01T12:02:48.365Z,1005
2017-03-01T12:03:48.334Z,1065
2017-03-01T12:04:48.652Z,1085
2017-03-01T12:05:48.241Z,1050
2017-03-01T12:06:48.265Z,1000
2017-03-01T12:07:48.234Z,980
2017-03-01T12:08:48.199Z,1205
2017-03-01T12:09:48.165Z,1885
2017-03-01T12:10:48.131Z,1470
2017-03-01T12:11:48.123Z,1265
2017-03-01T12:12:48.462Z,1380
2017-03-01T12:13:48.452Z,1285
2017-03-01T12:14:48.410Z,1055
2017-03-01T12:15:48.416Z,1155
2017-03-01T12:16:48.409Z,1100
2017-03-01T12:17:47.955Z,1185
2017-03-01T12:18:48.327Z,1280
2017-03-01T12:19:48.315Z,1430
2017-03-01T12:20:48.300Z,1535
2017-03-01T12:21:48.249Z,1600
2017-03-01T12:22:47.829Z,1570
2017-03-01T12:23:48.211Z,1535
2017-03-01T12:24:48.167Z,1480
2017-03-01T12:25:48.176Z,1240
2017-03-01T12:26:48.117Z,1380
2017-03-01T12:27:48.125Z,1440
2017-03-01T12:28:48.076Z,1330
2017-03-01T12:29:48.143Z,1340
2017-03-01T12:30:48.019Z,1295
2017-03-01T12:31:48.029Z,1310
2017-03-01T12:32:47.597Z,1165
2017-03-01T12:33:47.937Z,1215
2017-03-01T12:34:47.922Z,1240
2017-03-01T12:35:47.914Z,1365
2017-03-01T12:36:47.491Z,1365
2017-03-01T12:37:47.091Z,1370
2017-03-01T12:38:47.859Z,1490
2017-03-01T12:39:47.804Z,1490
2017-03-01T12:40:47.407Z,1405
2017-03-01T12:41:47.438Z,1355
2017-03-01T12:42:47.735Z,1375
2017-03-01T12:43:47.742Z,1300
2017-03-01T12:44:47.674Z,1235
2017-03-01T12:45:47.711Z,1265
2017-03-01T12:46:47.627Z,1275
2017-03-01T12:47:47.605Z,1330
2017-03-01T12:48:47.581Z,1250
2017-03-01T12:49:47.182Z,1240
2017-03-01T12:50:47.136Z,1190
2017-03-01T12:51:47.524Z,1185
2017-03-01T12:52:47.114Z,1205
2017-03-01T12:53:47.469Z,1275
2017-03-01T12:54:47.060Z,1295
2017-03-01T12:55:47.455Z,1285
2017-03-01T12:56:47.402Z,1275
2017-03-01T12:57:46.625Z,1270
2017-03-01T12:58:46.955Z,1310
2017-03-01T12:59:47.350Z,1385
2017-03-01T13:00:47.314Z,1450
2017-03-01T13:01:47.286Z,1405
2017-03-01T13:02:47.295Z,1355
2017-03-01T13:03:47.204Z,1400
2017-03-01T13:04:47.205Z,1310
2017-03-01T13:05:47.159Z,1275
2017-03-01T13:06:46.753Z,1260
2017-03-01T13:07:47.138Z,1320
2017-03-01T13:08:47.108Z,1320
2017-03-01T13:09:47.110Z,1340
2017-03-01T13:10:46.683Z,1340
2017-03-01T13:11:47.024Z,1325
2017-03-01T13:12:47.003Z,1320
2017-03-01T13:13:46.605Z,1340
2017-03-01T13:14:46.585Z,1255
2017-03-01T13:15:46.946Z,1220
2017-03-01T13:16:46.969Z,1290
2017-03-01T13:17:46.913Z,1360
2017-03-01T13:18:46.840Z,1350
2017-03-01T13:19:46.833Z,1370
2017-03-01T13:20:46.798Z,1220
2017-03-01T13:21:46.837Z,1180
2017-03-01T13:22:46.738Z,1250
2017-03-01T13:23:46.745Z,1295
2017-03-01T13:24:46.734Z,1275
2017-03-01T13:25:46.695Z,1245
2017-03-01T13:26:46.642Z,1170
2017-03-01T13:27:46.654Z,1195
2017-03-01T13:28:46.615Z,1180
2017-03-01T13:29:46.617Z,1260
2017-03-01T13:30:46.187Z,1270
2017-03-01T13:31:46.197Z,1210
2017-03-01T13:32:46.564Z,1200
2017-03-01T13:33:46.103Z,1265
2017-03-01T13:34:46.487Z,1330
2017-03-01T13:35:46.496Z,1225
2017-03-01T13:36:46.036Z,1370
2017-03-01T13:37:46.389Z,1345
2017-03-01T13:38:46.382Z,1305
2017-03-01T13:39:45.975Z,1265
2017-03-01T13:40:46.296Z,1175
2017-03-01T13:41:46.297Z,1575
2017-03-01T13:42:46.316Z,1480
2017-03-01T13:43:46.259Z,1380
2017-03-01T13:44:46.252Z,1190
2017-03-01T13:45:46.194Z,1335
2017-03-01T13:46:46.188Z,1320
2017-03-01T13:47:45.388Z,1305
2017-03-01T13:48:45.355Z,1355
2017-03-01T13:49:45.733Z,1230
2017-03-01T13:50:46.082Z,1255
2017-03-01T13:51:45.684Z,1355
2017-03-01T13:52:46.038Z,1515
2017-03-01T13:53:46.012Z,1565
2017-03-01T13:54:45.209Z,1640
2017-03-01T13:55:45.949Z,1425
2017-03-01T13:56:45.595Z,1290
2017-03-01T13:57:45.950Z,1560
2017-03-01T13:58:45.898Z,1350